TimeEDT,TemperatureF,Dew PointF,Humidity,Sea Level PressureIn,VisibilityMPH,Wind Direction,Wind SpeedMPH,Gust SpeedMPH,PrecipitationIn,Events,Conditions,WindDirDegrees,DateUTC
12:54 AM,48.9,46.0,90,30.15,10.0,SW,3.5,-,N/A,,Partly Cloudy,230,2013-09-09 04:54:00
1:54 AM,48.0,46.0,93,30.16,10.0,Calm,Calm,-,N/A,,Partly Cloudy,0,2013-09-09 05:54:00
2:54 AM,48.0,45.0,89,30.16,10.0,Calm,Calm,-,N/A,,Partly Cloudy,0,2013-09-09 06:54:00
3:54 AM,46.9,45.0,93,30.17,10.0,Calm,Calm,-,N/A,,Partly Cloudy,0,2013-09-09 07:54:00
4:54 AM,46.0,44.1,93,30.17,10.0,SW,3.5,-,N/A,,Partly Cloudy,220,2013-09-09 08:54:00
5:54 AM,46.0,43.0,89,30.17,10.0,SW,3.5,-,N/A,,Scattered Clouds,230,2013-09-09 09:54:00
6:54 AM,45.0,43.0,93,30.17,10.0,WSW,4.6,-,N/A,,Mostly Cloudy,240,2013-09-09 10:54:00
7:54 AM,46.9,45.0,93,30.18,10.0,SW,5.8,-,N/A,,Overcast,230,2013-09-09 11:54:00
8:54 AM,52.0,46.9,83,30.17,10.0,SSW,4.6,-,N/A,,Overcast,210,2013-09-09 12:54:00
9:54 AM,55.9,46.9,72,30.16,10.0,SSW,6.9,-,N/A,,Overcast,210,2013-09-09 13:54:00
10:54 AM,62.1,46.9,58,30.14,10.0,SSW,9.2,-,N/A,,Mostly Cloudy,210,2013-09-09 14:54:00
11:54 AM,66.9,46.9,49,30.12,10.0,WSW,11.5,-,N/A,,Mostly Cloudy,240,2013-09-09 15:54:00
12:54 PM,69.1,51.1,53,30.10,10.0,South,5.8,-,N/A,,Mostly Cloudy,190,2013-09-09 16:54:00
1:54 PM,72.0,53.1,51,30.10,10.0,SW,6.9,-,N/A,,Mostly Cloudy,220,2013-09-09 17:54:00
2:54 PM,73.9,55.0,52,30.06,10.0,ESE,3.5,-,N/A,,Mostly Cloudy,120,2013-09-09 18:54:00
3:54 PM,75.0,57.0,53,30.04,10.0,SW,6.9,-,N/A,,Overcast,220,2013-09-09 19:54:00
4:54 PM,75.0,57.0,53,30.04,10.0,Calm,Calm,-,N/A,,Overcast,0,2013-09-09 20:54:00
5:54 PM,72.0,55.9,57,30.02,10.0,NNE,6.9,-,N/A,,Mostly Cloudy,20,2013-09-09 21:54:00
6:54 PM,71.1,57.9,63,30.02,10.0,NE,3.5,-,N/A,,Mostly Cloudy,50,2013-09-09 22:54:00
7:54 PM,69.1,60.1,73,30.01,10.0,Calm,Calm,-,N/A,,Overcast,0,2013-09-09 23:54:00
8:54 PM,66.9,61.0,81,30.00,10.0,SSW,6.9,-,N/A,,Partly Cloudy,200,2013-09-10 00:54:00
9:54 PM,69.1,60.1,73,30.01,10.0,SW,8.1,-,N/A,,Clear,220,2013-09-10 01:54:00
10:54 PM,69.1,60.1,73,29.99,10.0,SW,12.7,20.7,N/A,,Mostly Cloudy,220,2013-09-10 02:54:00
11:54 PM,68.0,60.1,76,29.99,10.0,SW,13.8,-,N/A,,Mostly Cloudy,220,2013-09-10 03:54:00